Time;durP1;ratioP1;P1;durP2;ratioP2;P2;SDS_P1;SDS_P2;PMS_P1;PMS_P2;Temp;Humidity;BMP_temperature;BMP_pressure;BME280_temperature;BME280_humidity;BME280_pressure;Samples;Min_cycle;Max_cycle;Signal;HPM_P1;HPM_P2
2021/06/14 00:01:44;;;;;;;6.22;2.97;;;15.40;66.00;;;;;;5020777;28;20662;-68
2021/06/14 00:04:09;;;;;;;5.28;3.03;;;15.30;66.30;;;;;;5023207;28;20038;-68
2021/06/14 00:06:35;;;;;;;4.57;2.80;;;15.20;66.50;;;;;;5010199;28;20084;-68
2021/06/14 00:09:03;;;;;;;3.20;2.85;;;15.20;66.90;;;;;;5015435;28;20053;-68
2021/06/14 00:11:30;;;;;;;4.07;3.17;;;15.20;67.20;;;;;;5022784;28;20036;-68
2021/06/14 00:13:55;;;;;;;6.03;2.88;;;15.30;67.40;;;;;;5027134;28;20095;-68
2021/06/14 00:16:21;;;;;;;5.22;3.28;;;15.20;67.50;;;;;;5024274;28;20528;-68
2021/06/14 00:18:47;;;;;;;3.72;2.78;;;15.20;67.50;;;;;;5024630;28;20038;-68
2021/06/14 00:21:13;;;;;;;4.43;2.63;;;15.20;67.60;;;;;;5026646;28;20026;-68
2021/06/14 00:23:40;;;;;;;5.13;3.03;;;15.10;67.80;;;;;;5026616;28;20026;-68
2021/06/14 00:26:10;;;;;;;3.38;2.83;;;15.10;67.90;;;;;;5011213;28;20100;-68
2021/06/14 00:28:37;;;;;;;4.43;3.00;;;15.10;68.00;;;;;;5022396;28;20032;-68
2021/06/14 00:31:02;;;;;;;3.63;3.10;;;15.10;68.00;;;;;;5024474;28;20083;-68
2021/06/14 00:33:28;;;;;;;5.30;3.17;;;15.00;68.00;;;;;;5010456;28;20034;-68
2021/06/14 00:35:55;;;;;;;5.07;2.83;;;15.00;68.20;;;;;;5008608;28;20112;-68
2021/06/14 00:38:21;;;;;;;7.57;3.25;;;15.00;68.40;;;;;;5027448;28;20026;-68
2021/06/14 00:40:47;;;;;;;5.45;3.33;;;14.90;68.40;;;;;;5026433;28;20033;-68
2021/06/14 00:43:13;;;;;;;4.65;2.97;;;14.90;68.70;;;;;;5025877;28;20108;-68
2021/06/14 00:45:42;;;;;;;5.78;3.10;;;14.80;68.80;;;;;;5018761;28;20025;-68
2021/06/14 00:48:09;;;;;;;4.55;3.15;;;14.80;69.00;;;;;;5020419;28;20032;-68
2021/06/14 00:50:38;;;;;;;5.22;3.05;;;14.80;69.10;;;;;;5026079;28;20104;-68
2021/06/14 00:53:06;;;;;;;7.95;3.10;;;14.80;69.30;;;;;;5029896;28;20397;-68
2021/06/14 00:55:32;;;;;;;3.83;3.10;;;14.70;69.30;;;;;;5019810;28;20132;-68
2021/06/14 00:57:58;;;;;;;4.32;2.80;;;14.80;69.50;;;;;;5014180;28;20097;-68
2021/06/14 01:00:26;;;;;;;4.60;3.25;;;14.80;69.50;;;;;;5016660;28;20407;-68
2021/06/14 01:02:52;;;;;;;6.93;3.13;;;14.70;69.50;;;;;;5037159;28;20112;-68
2021/06/14 01:05:18;;;;;;;6.43;3.00;;;14.70;69.20;;;;;;5030669;28;20109;-68
2021/06/14 01:07:44;;;;;;;3.75;2.63;;;14.60;69.50;;;;;;5031836;28;20047;-68
2021/06/14 01:10:11;;;;;;;6.55;3.60;;;14.50;69.70;;;;;;5022234;28;20030;-68
2021/06/14 01:12:55;;;;;;;4.30;3.15;;;14.60;70.00;;;;;;5017471;28;20018;-68
2021/06/14 01:15:24;;;;;;;9.07;3.03;;;14.50;70.20;;;;;;5011579;28;20056;-68
2021/06/14 01:17:59;;;;;;;6.55;3.40;;;14.40;69.90;;;;;;5026898;28;20161;-68
2021/06/14 01:20:27;;;;;;;6.82;3.00;;;14.40;70.20;;;;;;5018870;28;20033;-68
2021/06/14 01:23:05;;;;;;;5.55;3.30;;;14.40;70.00;;;;;;5029700;28;20029;-68
2021/06/14 01:25:53;;;;;;;5.32;3.03;;;14.30;70.30;;;;;;5025249;28;20025;-68
2021/06/14 01:28:21;;;;;;;7.03;3.08;;;14.30;70.20;;;;;;5012229;28;20045;-68
2021/06/14 01:30:48;;;;;;;3.80;2.88;;;14.30;70.20;;;;;;5030056;28;20091;-68
2021/06/14 01:33:16;;;;;;;6.30;3.30;;;14.30;70.30;;;;;;5013007;28;20041;-68
2021/06/14 01:35:54;;;;;;;6.57;3.10;;;14.20;70.20;;;;;;5023973;28;20034;-68
2021/06/14 01:38:24;;;;;;;5.43;3.30;;;14.20;70.70;;;;;;5012387;28;20031;-68
2021/06/14 01:40:51;;;;;;;4.75;3.30;;;14.10;70.40;;;;;;5012084;28;20451;-68
2021/06/14 01:43:20;;;;;;;5.53;3.60;;;14.10;70.40;;;;;;5019619;28;20025;-68
2021/06/14 01:45:53;;;;;;;4.50;3.47;;;14.10;70.50;;;;;;5011882;28;20510;-68
2021/06/14 01:48:19;;;;;;;6.32;3.50;;;14.00;70.70;;;;;;5014929;28;20033;-68
2021/06/14 01:50:46;;;;;;;5.15;3.53;;;14.00;70.80;;;;;;5029269;28;20371;-67
2021/06/14 01:53:12;;;;;;;6.75;3.83;;;14.00;71.00;;;;;;5029001;28;20100;-68
2021/06/14 01:55:39;;;;;;;7.38;3.28;;;14.00;71.00;;;;;;5014041;28;20029;-68
2021/06/14 01:58:06;;;;;;;3.40;3.03;;;14.00;71.00;;;;;;5015801;28;20037;-68
2021/06/14 02:00:32;;;;;;;3.80;2.90;;;13.90;70.90;;;;;;5027767;28;20041;-68
2021/06/14 02:03:00;;;;;;;3.05;2.75;;;13.90;70.90;;;;;;5018913;28;20125;-68
2021/06/14 02:05:30;;;;;;;4.07;3.00;;;13.80;71.00;;;;;;5018822;28;20017;-68
2021/06/14 02:07:57;;;;;;;7.47;2.95;;;13.80;71.00;;;;;;5030642;28;20030;-68
2021/06/14 02:10:23;;;;;;;7.47;2.80;;;13.70;71.00;;;;;;5017769;28;20048;-68
2021/06/14 02:12:50;;;;;;;5.90;2.97;;;13.70;71.20;;;;;;5012952;28;20125;-68
2021/06/14 02:15:17;;;;;;;5.97;3.30;;;13.60;71.30;;;;;;5029020;28;20075;-68
2021/06/14 02:17:45;;;;;;;6.90;3.35;;;13.60;71.40;;;;;;5018422;28;20033;-68
2021/06/14 02:20:12;;;;;;;4.07;3.10;;;13.50;71.10;;;;;;5030620;28;20144;-68
2021/06/14 02:22:38;;;;;;;5.68;3.17;;;13.50;71.30;;;;;;5017066;28;20061;-68
2021/06/14 02:25:07;;;;;;;4.80;2.92;;;13.40;71.20;;;;;;5020353;28;20061;-68
2021/06/14 02:27:32;;;;;;;4.20;2.88;;;13.30;71.10;;;;;;5026661;28;20063;-68
2021/06/14 02:29:59;;;;;;;6.78;3.22;;;13.20;71.10;;;;;;5027191;28;20050;-68
2021/06/14 02:32:25;;;;;;;5.43;3.20;;;13.10;71.20;;;;;;5029751;28;20026;-68
2021/06/14 02:34:51;;;;;;;6.57;3.47;;;13.00;71.50;;;;;;5020828;28;20033;-68
2021/06/14 02:37:18;;;;;;;4.10;3.08;;;13.00;71.80;;;;;;5013184;28;20030;-68
2021/06/14 02:39:47;;;;;;;4.03;2.90;;;13.00;72.20;;;;;;5015500;28;20014;-68
2021/06/14 02:42:15;;;;;;;5.97;3.15;;;13.00;72.30;;;;;;5011332;28;20368;-68
2021/06/14 02:44:41;;;;;;;3.60;3.08;;;13.00;72.30;;;;;;5012169;28;20026;-68
2021/06/14 02:47:10;;;;;;;7.00;3.35;;;13.00;72.30;;;;;;5029576;28;20025;-68
2021/06/14 02:49:36;;;;;;;3.40;3.08;;;13.00;72.50;;;;;;5029990;28;20049;-68
2021/06/14 02:52:05;;;;;;;4.53;2.97;;;13.00;72.50;;;;;;5030196;28;20018;-68
2021/06/14 02:54:37;;;;;;;8.07;3.30;;;13.00;72.70;;;;;;5028651;28;20036;-68
2021/06/14 02:57:07;;;;;;;5.15;3.47;;;12.90;72.60;;;;;;5020074;28;20026;-68
2021/06/14 02:59:34;;;;;;;4.43;3.05;;;12.90;73.00;;;;;;5027564;28;20036;-68
2021/06/14 03:02:00;;;;;;;7.93;3.47;;;12.90;72.60;;;;;;5021723;28;20437;-68
2021/06/14 03:04:27;;;;;;;5.18;3.10;;;12.90;72.60;;;;;;5009589;28;20508;-68
2021/06/14 03:06:53;;;;;;;6.53;3.33;;;12.90;72.50;;;;;;5019901;28;20034;-68
2021/06/14 03:09:19;;;;;;;5.45;4.00;;;12.90;72.60;;;;;;5029904;28;20021;-68
2021/06/14 03:11:46;;;;;;;7.90;3.38;;;12.80;72.60;;;;;;5019822;28;20029;-68
2021/06/14 03:14:14;;;;;;;6.18;3.03;;;12.80;72.80;;;;;;5028612;28;20029;-68
2021/06/14 03:16:42;;;;;;;4.30;3.38;;;12.80;73.50;;;;;;5028423;28;20493;-68
2021/06/14 03:19:09;;;;;;;6.00;3.10;;;12.80;73.10;;;;;;5029615;28;20116;-68
2021/06/14 03:21:38;;;;;;;4.40;3.45;;;12.80;73.10;;;;;;5023445;28;20025;-68
2021/06/14 03:24:05;;;;;;;5.70;3.05;;;12.80;73.10;;;;;;5027198;28;20054;-68
2021/06/14 03:26:36;;;;;;;3.80;3.33;;;12.80;73.10;;;;;;5024031;28;20497;-68
2021/06/14 03:31:31;;;;;;;8.48;3.78;;;12.70;72.90;;;;;;5027683;28;20046;-65
2021/06/14 03:33:57;;;;;;;5.30;3.67;;;12.70;72.90;;;;;;5028104;28;20057;-64
2021/06/14 03:36:26;;;;;;;7.65;3.50;;;12.60;72.90;;;;;;5019632;28;20374;-64
2021/06/14 03:38:52;;;;;;;5.72;3.70;;;12.60;73.00;;;;;;5028218;28;20388;-64
2021/06/14 03:41:19;;;;;;;4.75;3.35;;;12.60;73.20;;;;;;5011688;28;20116;-64
2021/06/14 03:43:45;;;;;;;4.88;3.47;;;12.50;73.20;;;;;;5030462;28;20038;-64
2021/06/14 03:46:11;;;;;;;6.85;3.33;;;12.50;73.40;;;;;;5047418;28;20454;-65
2021/06/14 03:48:37;;;;;;;6.70;3.55;;;12.50;73.40;;;;;;5029178;28;20071;-64
2021/06/14 03:51:04;;;;;;;9.23;3.67;;;12.50;73.50;;;;;;5029283;28;20021;-66
2021/06/14 03:53:33;;;;;;;4.00;3.45;;;12.50;73.50;;;;;;5029593;28;20406;-68
2021/06/14 03:56:05;;;;;;;7.03;3.80;;;12.40;73.20;;;;;;5027738;28;20049;-65
2021/06/14 03:58:31;;;;;;;5.68;3.60;;;12.40;73.60;;;;;;5011847;28;20424;-64
2021/06/14 04:00:58;;;;;;;7.95;3.60;;;12.40;73.40;;;;;;5014966;28;20038;-64
2021/06/14 04:03:27;;;;;;;6.03;3.97;;;12.40;73.70;;;;;;5028365;28;20040;-65
2021/06/14 04:05:55;;;;;;;3.97;3.50;;;12.40;73.70;;;;;;5028566;28;20071;-65
2021/06/14 04:08:20;;;;;;;5.03;3.78;;;12.30;73.90;;;;;;5028994;28;20021;-66
2021/06/14 04:10:46;;;;;;;8.35;3.78;;;12.40;74.00;;;;;;5011062;28;20029;-68
2021/06/14 04:13:11;;;;;;;10.25;3.97;;;12.40;74.00;;;;;;5023643;28;20029;-67
2021/06/14 04:15:37;;;;;;;8.90;4.30;;;12.50;74.00;;;;;;5027164;28;20041;-64
2021/06/14 04:18:03;;;;;;;6.30;4.00;;;12.50;74.10;;;;;;5029357;28;20036;-65
2021/06/14 04:20:29;;;;;;;5.18;3.92;;;12.50;74.00;;;;;;5028785;28;20041;-64
2021/06/14 04:22:54;;;;;;;4.13;3.72;;;12.60;74.10;;;;;;5029413;28;20079;-67
2021/06/14 04:25:20;;;;;;;9.20;4.35;;;12.60;74.00;;;;;;5027867;28;20384;-70
2021/06/14 04:27:46;;;;;;;5.32;3.88;;;12.70;74.00;;;;;;5029799;28;20036;-63
2021/06/14 04:30:13;;;;;;;6.40;3.78;;;12.70;73.90;;;;;;5029737;28;20092;-64
2021/06/14 04:32:39;;;;;;;4.75;3.15;;;12.80;74.00;;;;;;5026690;28;20030;-69
2021/06/14 04:35:06;;;;;;;5.40;3.55;;;12.80;74.00;;;;;;5031515;28;20116;-69
2021/06/14 04:37:32;;;;;;;5.80;3.90;;;12.90;74.10;;;;;;5032879;28;20048;-64
2021/06/14 04:39:58;;;;;;;4.85;3.60;;;13.00;74.10;;;;;;5032918;28;20481;-65
2021/06/14 04:42:26;;;;;;;8.25;3.65;;;13.10;74.00;;;;;;5032700;28;20075;-66
2021/06/14 04:44:51;;;;;;;4.85;3.72;;;13.10;73.90;;;;;;5031262;28;20489;-65
2021/06/14 04:47:17;;;;;;;5.75;3.78;;;13.20;73.90;;;;;;5032993;28;20112;-68
2021/06/14 04:49:43;;;;;;;10.05;3.92;;;13.40;74.50;;;;;;5032878;28;20025;-65
2021/06/14 04:52:08;;;;;;;4.65;3.47;;;13.40;73.80;;;;;;5031861;28;20144;-65
2021/06/14 04:54:34;;;;;;;4.30;3.58;;;13.50;73.70;;;;;;5031087;28;20033;-65
2021/06/14 04:56:59;;;;;;;6.28;3.40;;;13.60;74.20;;;;;;5032700;28;20033;-68
2021/06/14 04:59:25;;;;;;;5.47;3.17;;;13.70;73.70;;;;;;5030327;28;20030;-64
2021/06/14 05:01:50;;;;;;;7.75;3.30;;;13.80;73.90;;;;;;5030040;28;20108;-65
2021/06/14 05:04:16;;;;;;;5.28;3.20;;;13.90;73.90;;;;;;5031642;28;20382;-66
2021/06/14 05:06:42;;;;;;;4.82;3.50;;;14.00;73.80;;;;;;5032383;28;20470;-69
2021/06/14 05:09:07;;;;;;;6.57;3.22;;;14.10;73.80;;;;;;4998882;28;20052;-65
2021/06/14 05:11:33;;;;;;;6.50;3.20;;;14.20;73.60;;;;;;5032886;28;20018;-66
2021/06/14 05:13:58;;;;;;;6.53;3.40;;;14.40;73.30;;;;;;5031034;28;20029;-66
2021/06/14 05:16:24;;;;;;;4.75;3.17;;;14.50;73.20;;;;;;5014367;28;20115;-67
2021/06/14 05:18:50;;;;;;;6.25;3.35;;;14.50;73.10;;;;;;5021380;28;20367;-69
2021/06/14 05:21:15;;;;;;;5.43;3.40;;;14.70;73.10;;;;;;5017721;28;20034;-65
2021/06/14 05:23:41;;;;;;;5.20;3.40;;;14.80;73.10;;;;;;5013269;28;20080;-66
2021/06/14 05:26:07;;;;;;;8.35;4.00;;;14.90;73.20;;;;;;5016146;28;20025;-66
2021/06/14 05:28:32;;;;;;;5.25;3.28;;;15.00;73.10;;;;;;5014576;28;20362;-67
2021/06/14 05:30:58;;;;;;;7.25;3.10;;;15.10;72.90;;;;;;5024367;28;20029;-64
2021/06/14 05:33:23;;;;;;;5.03;2.88;;;15.20;72.80;;;;;;5032649;28;20024;-65
2021/06/14 05:35:49;;;;;;;5.97;2.97;;;15.30;72.70;;;;;;5013613;28;20029;-65
2021/06/14 05:38:15;;;;;;;6.50;3.33;;;15.50;72.70;;;;;;5032843;28;20061;-67
2021/06/14 05:40:40;;;;;;;6.65;2.95;;;15.60;72.50;;;;;;5032292;28;20041;-66
2021/06/14 05:43:06;;;;;;;4.93;3.17;;;15.80;72.40;;;;;;5031711;28;20109;-64
2021/06/14 05:45:31;;;;;;;9.02;3.30;;;15.90;72.20;;;;;;5031267;28;20104;-66
2021/06/14 05:47:57;;;;;;;5.43;3.00;;;16.10;71.90;;;;;;5032656;28;20537;-68
2021/06/14 05:50:22;;;;;;;7.15;2.60;;;16.20;71.70;;;;;;5031967;28;20030;-65
2021/06/14 05:52:48;;;;;;;7.50;2.85;;;16.30;71.50;;;;;;5032193;28;20029;-65
2021/06/14 05:55:14;;;;;;;4.40;2.40;;;16.40;71.20;;;;;;5031464;28;20124;-65
2021/06/14 05:57:40;;;;;;;6.05;2.90;;;16.60;70.90;;;;;;5028852;28;20041;-66
2021/06/14 06:00:08;;;;;;;4.13;2.50;;;16.70;70.40;;;;;;5021161;28;20026;-66
2021/06/14 06:02:33;;;;;;;4.63;2.40;;;16.80;70.10;;;;;;5013096;28;20037;-67
2021/06/14 06:04:59;;;;;;;5.75;2.63;;;16.90;70.10;;;;;;5011494;28;20026;-65
2021/06/14 06:07:24;;;;;;;5.50;2.63;;;17.10;70.00;;;;;;5024464;28;20021;-65
2021/06/14 06:09:52;;;;;;;4.28;1.98;;;17.30;69.70;;;;;;5032113;28;20033;-66
2021/06/14 06:12:18;;;;;;;6.28;2.38;;;17.50;69.10;;;;;;5032004;28;20014;-68
2021/06/14 06:14:43;;;;;;;7.70;2.38;;;17.70;68.80;;;;;;5030442;28;20044;-65
2021/06/14 06:17:09;;;;;;;5.30;2.30;;;17.80;68.20;;;;;;5031403;28;20449;-68
2021/06/14 06:19:35;;;;;;;3.47;1.88;;;17.90;67.60;;;;;;5013983;28;20559;-66
2021/06/14 06:22:01;;;;;;;5.78;1.88;;;18.10;67.90;;;;;;5031897;28;20029;-66
2021/06/14 06:24:26;;;;;;;5.25;2.03;;;18.20;67.60;;;;;;5026961;28;20028;-67
2021/06/14 06:26:52;;;;;;;4.00;2.00;;;18.30;66.40;;;;;;5031236;28;20021;-67
2021/06/14 06:29:18;;;;;;;5.05;2.15;;;18.40;65.80;;;;;;5026150;28;20025;-64
2021/06/14 06:31:43;;;;;;;4.95;2.00;;;18.50;65.40;;;;;;5005251;28;20037;-65
2021/06/14 06:34:09;;;;;;;6.20;2.25;;;18.70;64.90;;;;;;5029759;28;20029;-65
2021/06/14 06:36:34;;;;;;;6.25;2.05;;;18.80;64.40;;;;;;5031435;28;20029;-68
2021/06/14 06:39:00;;;;;;;3.05;1.90;;;19.00;64.20;;;;;;5023679;28;20125;-65
2021/06/14 06:41:25;;;;;;;3.45;1.70;;;19.10;63.60;;;;;;5030964;28;20036;-67
2021/06/14 06:43:51;;;;;;;5.97;1.80;;;19.20;63.30;;;;;;5030927;28;20463;-65
2021/06/14 06:46:17;;;;;;;4.55;1.90;;;19.30;62.90;;;;;;5030755;28;20026;-67
2021/06/14 06:48:42;;;;;;;3.63;1.70;;;19.40;62.30;;;;;;5012672;28;20053;-66
2021/06/14 06:51:09;;;;;;;4.03;1.90;;;19.50;61.70;;;;;;5030690;28;20105;-65
2021/06/14 06:53:35;;;;;;;4.50;2.22;;;19.70;61.60;;;;;;5030307;28;20041;-66
2021/06/14 06:56:02;;;;;;;5.82;1.80;;;19.80;61.30;;;;;;5029997;28;20079;-65
2021/06/14 06:58:28;;;;;;;7.90;2.10;;;19.90;60.60;;;;;;5030748;28;20064;-68
2021/06/14 07:00:54;;;;;;;4.85;1.83;;;20.00;60.10;;;;;;4996439;28;20447;-66
2021/06/14 07:03:21;;;;;;;2.97;1.70;;;20.10;59.40;;;;;;5009351;28;20108;-66
2021/06/14 07:05:48;;;;;;;4.50;2.00;;;20.10;58.90;;;;;;5029129;28;20075;-65
2021/06/14 07:08:13;;;;;;;6.55;1.75;;;20.20;58.70;;;;;;5030686;28;20105;-67
2021/06/14 07:10:39;;;;;;;3.45;1.65;;;20.30;58.60;;;;;;5030875;28;20053;-65
2021/06/14 07:13:06;;;;;;;8.45;1.75;;;20.50;58.50;;;;;;5030886;28;20045;-65
2021/06/14 07:15:32;;;;;;;7.93;1.80;;;20.60;58.00;;;;;;5029317;28;20389;-67
2021/06/14 07:17:58;;;;;;;7.10;1.92;;;20.70;57.80;;;;;;5029795;28;20094;-67
2021/06/14 07:20:24;;;;;;;6.75;1.63;;;20.80;57.60;;;;;;5030892;28;20104;-69
2021/06/14 07:22:50;;;;;;;8.35;2.20;;;21.00;57.00;;;;;;5030310;28;20036;-66
2021/06/14 07:25:16;;;;;;;4.65;1.95;;;21.10;56.70;;;;;;5025822;28;20028;-66
2021/06/14 07:27:43;;;;;;;10.85;1.88;;;21.20;56.50;;;;;;5030180;28;20086;-66
2021/06/14 07:30:11;;;;;;;5.65;1.73;;;21.40;56.60;;;;;;5020053;28;20029;-68
2021/06/14 07:32:38;;;;;;;3.58;1.80;;;21.50;56.10;;;;;;5020890;28;20025;-67
2021/06/14 07:35:04;;;;;;;8.63;2.15;;;21.60;55.60;;;;;;5029684;28;20563;-67
2021/06/14 07:37:29;;;;;;;4.38;1.88;;;21.70;55.50;;;;;;5030156;28;20025;-65
2021/06/14 07:39:55;;;;;;;8.05;1.83;;;21.80;55.20;;;;;;5030754;28;20384;-65
2021/06/14 07:42:21;;;;;;;6.43;1.85;;;21.90;54.50;;;;;;5030073;28;20076;-66
2021/06/14 07:44:46;;;;;;;6.38;1.77;;;22.00;54.20;;;;;;5029449;28;20029;-67
2021/06/14 07:47:12;;;;;;;5.50;1.83;;;22.20;53.90;;;;;;5029892;28;20018;-65
2021/06/14 07:49:39;;;;;;;5.13;1.67;;;22.40;53.80;;;;;;5030526;28;20030;-66
2021/06/14 07:52:05;;;;;;;9.65;2.28;;;22.50;53.70;;;;;;5030498;28;20472;-69
2021/06/14 07:54:31;;;;;;;5.15;1.92;;;22.80;53.50;;;;;;5029367;28;20083;-66
2021/06/14 07:56:57;;;;;;;15.13;2.00;;;23.00;53.50;;;;;;5030217;28;20057;-68
2021/06/14 07:59:23;;;;;;;4.03;1.77;;;23.20;52.70;;;;;;5025976;28;20030;-67
2021/06/14 08:01:48;;;;;;;4.47;1.67;;;23.30;52.00;;;;;;5024346;28;20057;-66
2021/06/14 08:04:14;;;;;;;3.08;1.88;;;23.50;51.90;;;;;;5033128;28;20047;-66
2021/06/14 08:06:40;;;;;;;4.78;1.90;;;23.70;51.40;;;;;;5034153;28;20029;-67
2021/06/14 08:09:09;;;;;;;7.07;2.38;;;23.80;50.50;;;;;;5024277;28;20435;-69
2021/06/14 08:11:35;;;;;;;9.32;1.92;;;24.00;50.30;;;;;;5034230;28;20116;-66
2021/06/14 08:14:01;;;;;;;5.38;2.10;;;24.20;50.20;;;;;;5032886;28;20083;-66
2021/06/14 08:16:27;;;;;;;4.15;1.63;;;24.40;49.70;;;;;;5033792;28;20060;-66
2021/06/14 08:26:35;;;;;;;2.85;1.95;;;25.20;48.40;;;;;;5027540;28;20032;-66
2021/06/14 08:29:01;;;;;;;5.15;1.80;;;25.50;47.80;;;;;;5033898;28;20017;-67
2021/06/14 08:31:31;;;;;;;6.85;1.95;;;25.70;46.80;;;;;;5034447;28;20025;-67
2021/06/14 08:33:57;;;;;;;3.40;1.92;;;25.80;46.60;;;;;;5032744;28;20021;-66
2021/06/14 08:36:23;;;;;;;4.97;1.83;;;26.00;46.60;;;;;;5028578;28;20471;-69
2021/06/14 08:38:49;;;;;;;6.93;2.05;;;26.00;46.50;;;;;;5020053;28;20025;-70
2021/06/14 08:41:19;;;;;;;2.65;1.88;;;26.50;45.80;;;;;;5031036;28;20028;-71
2021/06/14 08:43:48;;;;;;;3.55;1.67;;;26.90;44.50;;;;;;5032974;28;20029;-67
2021/06/14 08:46:14;;;;;;;4.22;2.03;;;27.40;44.00;;;;;;5032808;28;20017;-66
2021/06/14 08:48:41;;;;;;;2.60;1.60;;;28.00;43.70;;;;;;5033358;28;20032;-66
2021/06/14 08:51:08;;;;;;;3.78;1.60;;;28.60;42.60;;;;;;5033492;28;20462;-71
2021/06/14 08:53:36;;;;;;;5.88;1.63;;;29.00;41.70;;;;;;5033297;28;20036;-67
2021/06/14 08:56:01;;;;;;;4.38;1.65;;;29.30;40.80;;;;;;5032490;28;20056;-67
2021/06/14 08:58:29;;;;;;;6.82;1.88;;;29.60;40.50;;;;;;5028927;28;20469;-67
2021/06/14 09:00:55;;;;;;;5.28;1.80;;;30.00;40.30;;;;;;5033483;28;20370;-70
2021/06/14 09:03:25;;;;;;;5.60;1.65;;;30.40;39.70;;;;;;5033237;28;20456;-70
2021/06/14 09:05:51;;;;;;;6.10;2.08;;;30.90;39.20;;;;;;5032097;28;20018;-71
2021/06/14 09:08:20;;;;;;;3.83;1.77;;;31.50;39.10;;;;;;5018594;28;20513;-67
2021/06/14 09:10:46;;;;;;;2.70;1.55;;;32.00;37.70;;;;;;5013485;28;20108;-67
2021/06/14 09:13:23;;;;;;;2.65;1.50;;;32.40;37.00;;;;;;5024019;28;20096;-68
2021/06/14 09:16:03;;;;;;;5.97;1.63;;;32.90;36.60;;;;;;5032213;28;20028;-67
2021/06/14 09:18:29;;;;;;;3.70;1.50;;;33.40;35.70;;;;;;5032685;28;20037;-67
2021/06/14 09:21:08;;;;;;;3.78;1.35;;;34.00;36.10;;;;;;5032579;28;20033;-67
2021/06/14 09:23:40;;;;;;;3.80;1.70;;;34.30;34.90;;;;;;5031222;28;20049;-70
2021/06/14 09:26:07;;;;;;;7.35;3.97;;;34.50;34.50;;;;;;5030485;28;20025;-67
2021/06/14 09:28:33;;;;;;;5.03;1.50;;;34.80;35.10;;;;;;5032419;28;20028;-67
2021/06/14 09:31:12;;;;;;;2.72;1.58;;;35.20;34.20;;;;;;5050577;22;20050;-70
2021/06/14 09:33:43;;;;;;;2.97;1.75;;;35.30;33.80;;;;;;5051962;28;20051;-70
2021/06/14 09:36:09;;;;;;;2.50;1.50;;;35.60;33.40;;;;;;5049118;28;20036;-70
2021/06/14 09:38:34;;;;;;;3.75;1.67;;;35.80;33.20;;;;;;5036218;28;20026;-75
2021/06/14 09:41:07;;;;;;;2.75;1.30;;;35.90;32.70;;;;;;5034379;28;20032;-73
2021/06/14 09:43:36;;;;;;;4.22;1.55;;;36.00;32.60;;;;;;5047535;28;20040;-75
2021/06/14 09:46:16;;;;;;;3.50;1.90;;;36.10;32.10;;;;;;5051034;28;20021;-75
2021/06/14 09:48:42;;;;;;;3.92;1.40;;;36.10;32.40;;;;;;5030243;28;20500;-75
2021/06/14 09:51:08;;;;;;;3.25;1.63;;;36.00;32.50;;;;;;5052385;28;20044;-75
2021/06/14 09:53:42;;;;;;;7.30;1.83;;;36.10;32.70;;;;;;5034029;28;20036;-75
2021/06/14 09:56:22;;;;;;;4.13;1.55;;;36.00;31.90;;;;;;5051386;28;20374;-75
2021/06/14 09:58:51;;;;;;;5.10;1.83;;;35.70;31.90;;;;;;5052122;28;20029;-75
2021/06/14 10:01:27;;;;;;;4.65;1.40;;;35.40;32.50;;;;;;5041747;28;20045;-75
2021/06/14 10:03:54;;;;;;;3.40;1.60;;;35.20;32.80;;;;;;5031214;28;20457;-75
2021/06/14 10:06:34;;;;;;;3.58;1.65;;;34.80;32.80;;;;;;5032217;28;20037;-75
2021/06/14 10:09:00;;;;;;;5.50;1.48;;;34.20;33.20;;;;;;5047180;28;20040;-75
2021/06/14 10:11:33;;;;;;;2.17;1.55;;;34.00;33.80;;;;;;5051976;28;20021;-76
2021/06/14 10:14:10;;;;;;;2.88;1.48;;;33.60;33.10;;;;;;5050799;28;20104;-75
2021/06/14 10:16:37;;;;;;;2.95;1.50;;;33.10;33.70;;;;;;5045763;28;20022;-75
2021/06/14 10:19:06;;;;;;;3.85;1.80;;;32.80;34.70;;;;;;5031431;28;20389;-75
2021/06/14 10:21:43;;;;;;;3.60;1.77;;;32.70;34.50;;;;;;5033850;28;20025;-76
2021/06/14 10:24:20;;;;;;;3.95;1.45;;;32.50;34.20;;;;;;5051969;28;20115;-76
2021/06/14 10:26:50;;;;;;;5.88;1.58;;;32.40;34.50;;;;;;5051300;28;20053;-75
2021/06/14 10:29:16;;;;;;;3.00;1.50;;;32.30;34.80;;;;;;5052022;28;20017;-75
2021/06/14 10:31:48;;;;;;;2.78;1.20;;;32.30;35.20;;;;;;5048024;28;20029;-75
2021/06/14 10:34:15;;;;;;;6.60;1.80;;;32.10;35.10;;;;;;5032978;28;20029;-73
2021/06/14 10:36:52;;;;;;;3.20;1.60;;;32.00;35.80;;;;;;5051872;28;20017;-73
2021/06/14 10:39:21;;;;;;;4.40;1.40;;;31.80;36.40;;;;;;5048257;28;20029;-73
2021/06/14 10:41:47;;;;;;;4.85;1.63;;;31.50;35.60;;;;;;5031828;28;20504;-74
2021/06/14 10:44:13;;;;;;;2.33;1.55;;;31.10;35.40;;;;;;5042373;28;20436;-75
2021/06/14 10:46:44;;;;;;;4.60;1.42;;;30.80;35.40;;;;;;5038209;28;20079;-74
2021/06/14 10:49:12;;;;;;;3.35;1.63;;;30.50;36.10;;;;;;5049491;28;20086;-74
2021/06/14 10:51:37;;;;;;;3.88;1.60;;;30.30;36.60;;;;;;5051029;28;20055;-75
2021/06/14 10:54:09;;;;;;;2.92;1.40;;;30.10;36.00;;;;;;5051359;28;20064;-75
2021/06/14 10:56:38;;;;;;;4.28;1.63;;;29.90;36.10;;;;;;5051672;28;20029;-75
2021/06/14 10:59:08;;;;;;;4.00;1.42;;;29.60;36.20;;;;;;5051478;28;20103;-75
2021/06/14 11:01:38;;;;;;;2.15;1.30;;;29.40;36.60;;;;;;5051542;28;20028;-75
2021/06/14 11:04:05;;;;;;;2.42;1.30;;;29.20;36.80;;;;;;5032432;28;20036;-75
2021/06/14 11:06:33;;;;;;;1.50;1.38;;;29.00;37.00;;;;;;5051377;28;20104;-75
2021/06/14 11:09:12;;;;;;;3.38;1.42;;;28.80;36.60;;;;;;5051160;28;20025;-75
2021/06/14 11:11:45;;;;;;;3.75;1.58;;;28.60;37.10;;;;;;5051220;28;20397;-75
2021/06/14 11:14:11;;;;;;;4.30;1.60;;;28.50;37.30;;;;;;5050985;28;20037;-76
2021/06/14 11:16:38;;;;;;;2.20;1.48;;;28.50;37.90;;;;;;5045015;28;20478;-76
2021/06/14 11:19:06;;;;;;;1.92;1.33;;;28.40;38.00;;;;;;5049145;28;20025;-76
2021/06/14 11:21:31;;;;;;;3.55;1.25;;;28.30;38.30;;;;;;5014322;28;20036;-76
2021/06/14 11:24:09;;;;;;;5.78;1.58;;;28.20;37.80;;;;;;5034977;28;20036;-75
2021/06/14 11:26:37;;;;;;;4.85;1.70;;;28.20;38.20;;;;;;5051128;28;20021;-75
2021/06/14 11:29:17;;;;;;;2.72;1.55;;;28.20;38.10;;;;;;5049127;28;20025;-75
2021/06/14 11:32:02;;;;;;;4.88;1.83;;;28.10;37.80;;;;;;5017797;28;20033;-75
2021/06/14 11:34:41;;;;;;;2.35;1.40;;;28.00;38.10;;;;;;5047411;28;20025;-75
2021/06/14 11:37:07;;;;;;;3.92;1.45;;;28.10;38.10;;;;;;5032646;28;20029;-75
2021/06/14 11:39:33;;;;;;;3.28;1.70;;;28.10;38.10;;;;;;5033008;28;20509;-75
2021/06/14 11:42:15;;;;;;;1.92;1.20;;;28.20;38.70;;;;;;5050970;28;20070;-75
2021/06/14 11:44:55;;;;;;;5.93;1.35;;;28.30;38.60;;;;;;5031496;28;20067;-76
2021/06/14 11:47:27;;;;;;;1.67;1.20;;;28.30;38.60;;;;;;5032685;28;20370;-75
2021/06/14 11:49:59;;;;;;;2.35;1.33;;;28.20;37.90;;;;;;5032538;28;20029;-75
2021/06/14 11:52:31;;;;;;;3.33;1.55;;;28.20;39.00;;;;;;5051884;28;20032;-75
2021/06/14 11:55:00;;;;;;;3.17;1.52;;;28.20;38.60;;;;;;5049410;28;20033;-76
2021/06/14 11:57:33;;;;;;;4.63;1.70;;;28.20;38.70;;;;;;5050178;28;20069;-75
2021/06/14 11:59:59;;;;;;;3.28;1.63;;;28.20;38.20;;;;;;5021079;28;20032;-75
2021/06/14 12:02:27;;;;;;;5.47;1.75;;;28.20;38.30;;;;;;5031993;28;20010;-76
2021/06/14 12:04:58;;;;;;;4.18;1.60;;;28.20;38.60;;;;;;5048994;28;20021;-74
2021/06/14 12:07:38;;;;;;;3.42;1.60;;;28.20;38.50;;;;;;5049421;28;20082;-74
2021/06/14 12:10:06;;;;;;;5.00;1.52;;;28.20;39.00;;;;;;5032570;28;20021;-75
2021/06/14 12:12:32;;;;;;;2.40;1.27;;;28.30;39.10;;;;;;5050106;28;20493;-74
2021/06/14 12:14:58;;;;;;;4.10;1.52;;;28.40;39.70;;;;;;5044492;28;20028;-74
2021/06/14 12:17:26;;;;;;;4.63;1.50;;;28.50;39.40;;;;;;5037156;28;20029;-75
2021/06/14 12:19:52;;;;;;;2.60;1.52;;;28.60;39.00;;;;;;5050268;28;20040;-75
2021/06/14 12:22:20;;;;;;;6.65;1.60;;;28.70;38.90;;;;;;5027022;28;20452;-76
2021/06/14 12:24:46;;;;;;;3.47;1.70;;;28.70;38.60;;;;;;5031211;28;20025;-75
2021/06/14 12:27:12;;;;;;;5.97;1.45;;;28.70;38.70;;;;;;5031862;28;20028;-75
2021/06/14 12:29:38;;;;;;;4.43;1.50;;;28.70;38.70;;;;;;5049441;28;20030;-76
2021/06/14 12:32:09;;;;;;;5.15;1.90;;;28.60;38.80;;;;;;5036821;28;20107;-76
2021/06/14 12:34:37;;;;;;;6.63;1.70;;;28.60;38.70;;;;;;5049050;28;20017;-76
2021/06/14 12:37:13;;;;;;;4.25;1.60;;;28.60;39.10;;;;;;5049930;28;20105;-75
2021/06/14 12:39:40;;;;;;;2.55;1.58;;;28.60;38.80;;;;;;5049960;28;20032;-76
2021/06/14 12:42:17;;;;;;;7.22;1.63;;;28.40;38.70;;;;;;5032124;28;20025;-75
2021/06/14 12:44:55;;;;;;;7.13;1.38;;;28.30;39.20;;;;;;5048717;28;20082;-75
2021/06/14 12:47:22;;;;;;;4.60;1.55;;;28.30;39.50;;;;;;5031988;28;20075;-76
2021/06/14 12:49:49;;;;;;;5.93;1.58;;;28.30;39.70;;;;;;5052097;28;20025;-76
2021/06/14 12:52:20;;;;;;;3.15;1.70;;;28.30;39.50;;;;;;5053588;28;20028;-76
2021/06/14 12:54:46;;;;;;;6.07;1.30;;;28.10;39.30;;;;;;5034510;28;20059;-75
2021/06/14 12:57:13;;;;;;;5.57;1.73;;;27.90;39.20;;;;;;5053265;28;20029;-76
2021/06/14 12:59:39;;;;;;;4.70;1.73;;;27.80;39.50;;;;;;5035443;28;20036;-76